Login to view products. 
Saturday, June 24, 2017 (20:34 UTC)
Abu Dhabi International Airport
Last Updated: 24-Jun-2017 (20:34Z)
Wind Dir/Speed: WNW at 05 kt
Temperature: 32.6°C
Rel. Humidity: 75 %
Pressure: 998.5
Visibility: 10000 m
ACTUALS
  • METAR OMAA 242000Z 29007KT CAVOK 33/26 Q0998 NOSIG
  • TAF OMAA 241700Z 2418/2600 32008KT 8000 NSC BECMG 2423/2501 21004KT PROB30 TEMPO 2423/2503 VRB02KT 3000 BR BKN006 BECMG 2505/2507 30012KT=